sensor_id;sensor_type;location;lat;lon;timestamp;pressure;altitude;pressure_sealevel;temperature;humidity
52227;BME280;38190;59.928;10.446;2022-08-18T00:01:40;100540.19;;;14.77;100.00
52227;BME280;38190;59.928;10.446;2022-08-18T00:04:41;100538.50;;;14.73;100.00
52227;BME280;38190;59.928;10.446;2022-08-18T00:07:42;100539.34;;;14.73;100.00
52227;BME280;38190;59.928;10.446;2022-08-18T00:10:43;100531.47;;;14.70;100.00
52227;BME280;38190;59.928;10.446;2022-08-18T00:13:43;100535.88;;;14.71;100.00
52227;BME280;38190;59.928;10.446;2022-08-18T00:16:44;100529.66;;;14.74;100.00
52227;BME280;38190;59.928;10.446;2022-08-18T00:19:44;100535.97;;;14.65;100.00
52227;BME280;38190;59.928;10.446;2022-08-18T00:22:45;100535.91;;;14.68;100.00
52227;BME280;38190;59.928;10.446;2022-08-18T00:25:46;100526.34;;;14.60;100.00
52227;BME280;38190;59.928;10.446;2022-08-18T00:28:46;100543.97;;;14.61;100.00
52227;BME280;38190;59.928;10.446;2022-08-18T00:31:47;100543.09;;;14.57;100.00
52227;BME280;38190;59.928;10.446;2022-08-18T00:34:47;100541.34;;;14.56;100.00
52227;BME280;38190;59.928;10.446;2022-08-18T00:37:48;100542.28;;;14.55;100.00
52227;BME280;38190;59.928;10.446;2022-08-18T00:40:50;100556.31;;;14.60;100.00
52227;BME280;38190;59.928;10.446;2022-08-18T00:43:52;100566.75;;;14.66;100.00
52227;BME280;38190;59.928;10.446;2022-08-18T00:46:53;100567.66;;;14.65;100.00
52227;BME280;38190;59.928;10.446;2022-08-18T00:49:54;100558.00;;;14.63;100.00
52227;BME280;38190;59.928;10.446;2022-08-18T00:53:04;100565.97;;;14.61;100.00
52227;BME280;38190;59.928;10.446;2022-08-18T00:56:13;100573.94;;;14.58;100.00
52227;BME280;38190;59.928;10.446;2022-08-18T01:02:36;100574.75;;;14.63;100.00
52227;BME280;38190;59.928;10.446;2022-08-18T01:05:44;100573.00;;;14.62;100.00
52227;BME280;38190;59.928;10.446;2022-08-18T01:08:46;100582.72;;;14.60;100.00
52227;BME280;38190;59.928;10.446;2022-08-18T01:11:47;100583.59;;;14.57;100.00
52227;BME280;38190;59.928;10.446;2022-08-18T01:14:47;100589.03;;;14.48;100.00
52227;BME280;38190;59.928;10.446;2022-08-18T01:17:48;100589.97;;;14.43;100.00
52227;BME280;38190;59.928;10.446;2022-08-18T01:24:33;100588.41;;;14.29;100.00
52227;BME280;38190;59.928;10.446;2022-08-18T01:27:53;100584.13;;;14.22;100.00
52227;BME280;38190;59.928;10.446;2022-08-18T01:30:57;100584.16;;;14.19;100.00
52227;BME280;38190;59.928;10.446;2022-08-18T01:33:58;100576.28;;;14.14;100.00
52227;BME280;38190;59.928;10.446;2022-08-18T01:37:00;100581.63;;;14.08;100.00
52227;BME280;38190;59.928;10.446;2022-08-18T01:40:05;100584.22;;;14.13;100.00
52227;BME280;38190;59.928;10.446;2022-08-18T01:43:07;100582.50;;;14.12;100.00
52227;BME280;38190;59.928;10.446;2022-08-18T01:46:08;100592.19;;;14.10;100.00
52227;BME280;38190;59.928;10.446;2022-08-18T01:49:09;100589.53;;;14.10;100.00
52227;BME280;38190;59.928;10.446;2022-08-18T01:52:14;100590.50;;;14.04;100.00
52227;BME280;38190;59.928;10.446;2022-08-18T01:55:17;100585.22;;;14.04;100.00
52227;BME280;38190;59.928;10.446;2022-08-18T01:58:18;100601.13;;;13.99;100.00
52227;BME280;38190;59.928;10.446;2022-08-18T02:01:22;100602.91;;;13.97;100.00
52227;BME280;38190;59.928;10.446;2022-08-18T02:04:25;100596.78;;;13.95;100.00
52227;BME280;38190;59.928;10.446;2022-08-18T02:07:27;100594.06;;;14.00;100.00
52227;BME280;38190;59.928;10.446;2022-08-18T02:10:27;100600.25;;;13.99;100.00
52227;BME280;38190;59.928;10.446;2022-08-18T02:13:28;100587.09;;;13.96;100.00
52227;BME280;38190;59.928;10.446;2022-08-18T02:16:29;100591.41;;;14.01;100.00
52227;BME280;38190;59.928;10.446;2022-08-18T02:19:35;100583.47;;;14.03;100.00
52227;BME280;38190;59.928;10.446;2022-08-18T02:22:38;100584.25;;;14.10;100.00
52227;BME280;38190;59.928;10.446;2022-08-18T02:25:41;100591.22;;;14.17;100.00
52227;BME280;38190;59.928;10.446;2022-08-18T02:28:42;100588.72;;;14.06;100.00
52227;BME280;38190;59.928;10.446;2022-08-18T02:31:42;100602.91;;;13.99;100.00
52227;BME280;38190;59.928;10.446;2022-08-18T02:34:43;100605.59;;;13.94;100.00
52227;BME280;38190;59.928;10.446;2022-08-18T02:37:43;100590.69;;;13.90;100.00
52227;BME280;38190;59.928;10.446;2022-08-18T02:40:53;100597.72;;;13.88;100.00
52227;BME280;38190;59.928;10.446;2022-08-18T02:43:54;100593.41;;;13.84;100.00
52227;BME280;38190;59.928;10.446;2022-08-18T02:46:54;100594.31;;;13.78;100.00
52227;BME280;38190;59.928;10.446;2022-08-18T02:49:55;100593.50;;;13.75;100.00
52227;BME280;38190;59.928;10.446;2022-08-18T02:52:55;100592.66;;;13.71;100.00
52227;BME280;38190;59.928;10.446;2022-08-18T02:56:26;100593.53;;;13.72;100.00
52227;BME280;38190;59.928;10.446;2022-08-18T02:59:26;100588.25;;;13.72;100.00
52227;BME280;38190;59.928;10.446;2022-08-18T03:02:26;100589.22;;;13.66;100.00
52227;BME280;38190;59.928;10.446;2022-08-18T03:05:27;100583.91;;;13.69;100.00
52227;BME280;38190;59.928;10.446;2022-08-18T03:08:29;100587.44;;;13.66;100.00
52227;BME280;38190;59.928;10.446;2022-08-18T03:11:29;100581.31;;;13.64;100.00
52227;BME280;38190;59.928;10.446;2022-08-18T03:14:30;100583.94;;;13.66;100.00
52227;BME280;38190;59.928;10.446;2022-08-18T03:17:34;100582.19;;;13.62;100.00
52227;BME280;38190;59.928;10.446;2022-08-18T03:20:34;100574.41;;;13.54;100.00
52227;BME280;38190;59.928;10.446;2022-08-18T03:23:35;100592.84;;;13.54;100.00
52227;BME280;38190;59.928;10.446;2022-08-18T03:26:42;100588.50;;;13.50;100.00
52227;BME280;38190;59.928;10.446;2022-08-18T03:29:43;100589.31;;;13.54;100.00
52227;BME280;38190;59.928;10.446;2022-08-18T03:32:44;100598.94;;;13.59;100.00
52227;BME280;38190;59.928;10.446;2022-08-18T03:35:45;100611.25;;;13.60;100.00
52227;BME280;38190;59.928;10.446;2022-08-18T03:38:47;100598.97;;;13.56;100.00
52227;BME280;38190;59.928;10.446;2022-08-18T03:41:49;100601.56;;;13.62;100.00
52227;BME280;38190;59.928;10.446;2022-08-18T03:44:53;100604.97;;;13.72;100.00
52227;BME280;38190;59.928;10.446;2022-08-18T03:47:53;100608.44;;;13.76;100.00
52227;BME280;38190;59.928;10.446;2022-08-18T03:50:54;100609.38;;;13.69;100.00
52227;BME280;38190;59.928;10.446;2022-08-18T03:54:03;100605.94;;;13.63;100.00
52227;BME280;38190;59.928;10.446;2022-08-18T03:57:07;100601.53;;;13.67;100.00
52227;BME280;38190;59.928;10.446;2022-08-18T04:00:08;100610.28;;;13.68;100.00
52227;BME280;38190;59.928;10.446;2022-08-18T04:03:11;100619.09;;;13.66;100.00
52227;BME280;38190;59.928;10.446;2022-08-18T04:06:16;100619.13;;;13.62;100.00
52227;BME280;38190;59.928;10.446;2022-08-18T04:09:17;100615.59;;;13.66;100.00
52227;BME280;38190;59.928;10.446;2022-08-18T04:12:18;100619.09;;;13.65;100.00
52227;BME280;38190;59.928;10.446;2022-08-18T04:15:18;100617.34;;;13.67;100.00
52227;BME280;38190;59.928;10.446;2022-08-18T04:18:18;100611.16;;;13.66;100.00
52227;BME280;38190;59.928;10.446;2022-08-18T04:21:19;100613.72;;;13.77;100.00
52227;BME280;38190;59.928;10.446;2022-08-18T04:24:19;100623.44;;;13.74;100.00
52227;BME280;38190;59.928;10.446;2022-08-18T04:27:20;100634.03;;;13.69;100.00
52227;BME280;38190;59.928;10.446;2022-08-18T04:30:21;100627.00;;;13.66;100.00
52227;BME280;38190;59.928;10.446;2022-08-18T04:33:21;100627.00;;;13.66;100.00
52227;BME280;38190;59.928;10.446;2022-08-18T04:36:22;100626.97;;;13.70;100.00
52227;BME280;38190;59.928;10.446;2022-08-18T04:39:23;100637.47;;;13.76;100.00
52227;BME280;38190;59.928;10.446;2022-08-18T04:42:24;100640.13;;;13.73;100.00
52227;BME280;38190;59.928;10.446;2022-08-18T04:45:24;100640.16;;;13.70;100.00
52227;BME280;38190;59.928;10.446;2022-08-18T04:48:25;100641.09;;;13.65;100.00
52227;BME280;38190;59.928;10.446;2022-08-18T04:51:27;100635.84;;;13.62;100.00
52227;BME280;38190;59.928;10.446;2022-08-18T04:54:28;100647.25;;;13.66;100.00
52227;BME280;38190;59.928;10.446;2022-08-18T04:57:29;100636.69;;;13.66;100.00
52227;BME280;38190;59.928;10.446;2022-08-18T05:00:32;100649.84;;;13.69;100.00
52227;BME280;38190;59.928;10.446;2022-08-18T05:03:34;100645.41;;;13.74;100.00
52227;BME280;38190;59.928;10.446;2022-08-18T05:06:35;100646.25;;;13.75;100.00
52227;BME280;38190;59.928;10.446;2022-08-18T05:09:37;100651.47;;;13.81;100.00
52227;BME280;38190;59.928;10.446;2022-08-18T05:12:38;100650.69;;;13.71;100.00
52227;BME280;38190;59.928;10.446;2022-08-18T05:15:42;100646.38;;;13.65;100.00
52227;BME280;38190;59.928;10.446;2022-08-18T05:18:43;100652.50;;;13.66;100.00
52227;BME280;38190;59.928;10.446;2022-08-18T05:21:43;100656.00;;;13.70;100.00
52227;BME280;38190;59.928;10.446;2022-08-18T05:24:44;100655.13;;;13.71;100.00
52227;BME280;38190;59.928;10.446;2022-08-18T05:27:44;100655.09;;;13.74;100.00
52227;BME280;38190;59.928;10.446;2022-08-18T05:30:45;100658.63;;;13.70;100.00
52227;BME280;38190;59.928;10.446;2022-08-18T05:33:46;100663.03;;;13.71;100.00
52227;BME280;38190;59.928;10.446;2022-08-18T05:40:00;100665.78;;;13.55;100.00
52227;BME280;38190;59.928;10.446;2022-08-18T05:43:03;100661.44;;;13.53;100.00
52227;BME280;38190;59.928;10.446;2022-08-18T05:46:06;100664.00;;;13.60;100.00
52227;BME280;38190;59.928;10.446;2022-08-18T05:49:09;100664.88;;;13.62;100.00
52227;BME280;38190;59.928;10.446;2022-08-18T05:52:42;100654.22;;;13.70;100.00
52227;BME280;38190;59.928;10.446;2022-08-18T05:55:56;100657.72;;;13.75;100.00
52227;BME280;38190;59.928;10.446;2022-08-18T05:59:26;100663.84;;;13.76;100.00
52227;BME280;38190;59.928;10.446;2022-08-18T06:02:39;100660.28;;;13.80;100.00
52227;BME280;38190;59.928;10.446;2022-08-18T06:08:57;100663.72;;;13.85;100.00
52227;BME280;38190;59.928;10.446;2022-08-18T06:12:08;100670.81;;;13.83;100.00
52227;BME280;38190;59.928;10.446;2022-08-18T06:25:11;100662.91;;;13.80;100.00
52227;BME280;38190;59.928;10.446;2022-08-18T06:28:14;100665.56;;;13.78;100.00
52227;BME280;38190;59.928;10.446;2022-08-18T06:31:19;100659.34;;;13.87;100.00
52227;BME280;38190;59.928;10.446;2022-08-18T06:50:51;100659.94;;;14.11;100.00
52227;BME280;38190;59.928;10.446;2022-08-18T06:53:57;100669.47;;;14.23;100.00
52227;BME280;38190;59.928;10.446;2022-08-18T06:56:58;100657.19;;;14.20;100.00
52227;BME280;38190;59.928;10.446;2022-08-18T07:00:40;100672.09;;;14.24;100.00
52227;BME280;38190;59.928;10.446;2022-08-18T07:06:37;100669.50;;;14.19;100.00
52227;BME280;38190;59.928;10.446;2022-08-18T07:09:37;100678.34;;;14.18;100.00
52227;BME280;38190;59.928;10.446;2022-08-18T07:12:38;100687.16;;;14.16;100.00
52227;BME280;38190;59.928;10.446;2022-08-18T07:15:39;100690.72;;;14.13;100.00
52227;BME280;38190;59.928;10.446;2022-08-18T07:18:40;100692.50;;;14.10;100.00
52227;BME280;38190;59.928;10.446;2022-08-18T07:21:41;100688.09;;;14.12;100.00
52227;BME280;38190;59.928;10.446;2022-08-18T07:24:45;100688.09;;;14.12;100.00
52227;BME280;38190;59.928;10.446;2022-08-18T07:27:47;100682.88;;;14.06;100.00
52227;BME280;38190;59.928;10.446;2022-08-18T07:30:48;100688.13;;;14.09;100.00
52227;BME280;38190;59.928;10.446;2022-08-18T07:33:57;100682.88;;;14.06;100.00
52227;BME280;38190;59.928;10.446;2022-08-18T07:37:03;100682.91;;;14.02;100.00
52227;BME280;38190;59.928;10.446;2022-08-18T07:43:58;100685.44;;;14.12;100.00
52227;BME280;38190;59.928;10.446;2022-08-18T07:47:07;100691.53;;;14.20;100.00
52227;BME280;38190;59.928;10.446;2022-08-18T07:50:10;100695.63;;;14.41;100.00
52227;BME280;38190;59.928;10.446;2022-08-18T07:53:44;100696.53;;;14.42;100.00
52227;BME280;38190;59.928;10.446;2022-08-18T07:56:55;100711.53;;;14.36;100.00
52227;BME280;38190;59.928;10.446;2022-08-18T08:06:27;100706.31;;;14.33;100.00
52227;BME280;38190;59.928;10.446;2022-08-18T08:09:51;100713.31;;;14.36;100.00
52227;BME280;38190;59.928;10.446;2022-08-18T08:13:11;100708.16;;;14.27;100.00
52227;BME280;38190;59.928;10.446;2022-08-18T08:16:19;100714.28;;;14.30;100.00
52227;BME280;38190;59.928;10.446;2022-08-18T08:19:48;100710.56;;;14.47;100.00
52227;BME280;38190;59.928;10.446;2022-08-18T08:23:17;100720.28;;;14.43;100.00
52227;BME280;38190;59.928;10.446;2022-08-18T08:32:51;100716.59;;;14.56;100.00
52227;BME280;38190;59.928;10.446;2022-08-18T08:39:33;100713.06;;;14.56;100.00
52227;BME280;38190;59.928;10.446;2022-08-18T08:42:42;100712.19;;;14.55;100.00
52227;BME280;38190;59.928;10.446;2022-08-18T08:45:52;100712.19;;;14.57;100.00
52227;BME280;38190;59.928;10.446;2022-08-18T08:48:59;100703.28;;;14.66;100.00
52227;BME280;38190;59.928;10.446;2022-08-18T08:52:08;100707.66;;;14.68;100.00
52227;BME280;38190;59.928;10.446;2022-08-18T08:55:19;100705.88;;;14.69;100.00
52227;BME280;38190;59.928;10.446;2022-08-18T08:58:34;100698.78;;;14.71;100.00
52227;BME280;38190;59.928;10.446;2022-08-18T09:05:09;100695.75;;;14.99;100.00
52227;BME280;38190;59.928;10.446;2022-08-18T09:18:13;100682.50;;;15.55;100.00
52227;BME280;38190;59.928;10.446;2022-08-18T09:21:20;100680.38;;;15.75;100.00
52227;BME280;38190;59.928;10.446;2022-08-18T09:24:28;100683.06;;;15.72;100.00
52227;BME280;38190;59.928;10.446;2022-08-18T09:27:44;100686.44;;;15.83;100.00
52227;BME280;38190;59.928;10.446;2022-08-18T09:37:54;100689.69;;;16.41;100.00
52227;BME280;38190;59.928;10.446;2022-08-18T09:41:26;100687.16;;;16.37;100.00
52227;BME280;38190;59.928;10.446;2022-08-18T09:54:17;100690.69;;;17.53;98.47
52227;BME280;38190;59.928;10.446;2022-08-18T09:57:23;100687.00;;;17.57;92.29
52227;BME280;38190;59.928;10.446;2022-08-18T10:00:29;100689.72;;;17.56;89.16
52227;BME280;38190;59.928;10.446;2022-08-18T10:03:30;100685.88;;;16.95;94.96
52227;BME280;38190;59.928;10.446;2022-08-18T10:06:30;100688.00;;;17.19;94.32
52227;BME280;38190;59.928;10.446;2022-08-18T10:09:57;100688.06;;;16.76;94.55
52227;BME280;38190;59.928;10.446;2022-08-18T10:16:30;100690.28;;;16.56;98.59
52227;BME280;38190;59.928;10.446;2022-08-18T10:22:41;100689.16;;;16.26;99.18
52227;BME280;38190;59.928;10.446;2022-08-18T10:25:43;100684.25;;;16.05;100.00
52227;BME280;38190;59.928;10.446;2022-08-18T10:32:23;100692.53;;;16.34;99.75
52227;BME280;38190;59.928;10.446;2022-08-18T10:38:41;100687.28;;;16.31;100.00
52227;BME280;38190;59.928;10.446;2022-08-18T10:41:54;100681.31;;;16.19;99.65
52227;BME280;38190;59.928;10.446;2022-08-18T10:45:07;100676.28;;;16.49;100.00
52227;BME280;38190;59.928;10.446;2022-08-18T10:48:29;100683.84;;;16.66;100.00
52227;BME280;38190;59.928;10.446;2022-08-18T10:55:23;100677.13;;;16.51;100.00
52227;BME280;38190;59.928;10.446;2022-08-18T11:05:08;100678.34;;;16.77;98.22
52227;BME280;38190;59.928;10.446;2022-08-18T11:08:13;100673.44;;;16.58;98.09
52227;BME280;38190;59.928;10.446;2022-08-18T11:11:20;100685.13;;;16.90;95.21
52227;BME280;38190;59.928;10.446;2022-08-18T11:18:00;100674.91;;;16.31;98.51
52227;BME280;38190;59.928;10.446;2022-08-18T11:24:26;100668.06;;;16.61;100.00
52227;BME280;38190;59.928;10.446;2022-08-18T11:27:31;100657.59;;;16.96;97.94
52227;BME280;38190;59.928;10.446;2022-08-18T11:30:36;100665.72;;;17.24;93.92
52227;BME280;38190;59.928;10.446;2022-08-18T11:33:41;100669.44;;;17.53;93.03
52227;BME280;38190;59.928;10.446;2022-08-18T11:36:41;100650.28;;;18.07;89.98
52227;BME280;38190;59.928;10.446;2022-08-18T11:39:47;100647.94;;;17.62;95.05
52227;BME280;38190;59.928;10.446;2022-08-18T11:42:58;100653.91;;;17.38;93.41
52227;BME280;38190;59.928;10.446;2022-08-18T11:46:15;100660.06;;;17.04;91.13
52227;BME280;38190;59.928;10.446;2022-08-18T11:49:29;100650.50;;;16.96;90.29
52227;BME280;38190;59.928;10.446;2022-08-18T11:52:46;100655.22;;;16.82;91.18
52227;BME280;38190;59.928;10.446;2022-08-18T12:02:27;100655.28;;;17.85;91.92
52227;BME280;38190;59.928;10.446;2022-08-18T12:05:27;100651.03;;;17.80;90.30
52227;BME280;38190;59.928;10.446;2022-08-18T12:08:34;100644.59;;;18.20;88.90
52227;BME280;38190;59.928;10.446;2022-08-18T12:11:57;100642.97;;;18.16;87.29
52227;BME280;38190;59.928;10.446;2022-08-18T12:18:20;100640.94;;;17.60;93.52
52227;BME280;38190;59.928;10.446;2022-08-18T12:21:21;100638.66;;;17.46;91.71
52227;BME280;38190;59.928;10.446;2022-08-18T12:24:32;100631.00;;;17.68;90.84
52227;BME280;38190;59.928;10.446;2022-08-18T12:27:32;100645.09;;;17.70;92.86
52227;BME280;38190;59.928;10.446;2022-08-18T12:30:33;100624.31;;;17.86;89.07
52227;BME280;38190;59.928;10.446;2022-08-18T12:33:34;100636.44;;;19.12;86.35
52227;BME280;38190;59.928;10.446;2022-08-18T12:36:35;100642.84;;;19.33;83.09
52227;BME280;38190;59.928;10.446;2022-08-18T12:39:36;100633.75;;;20.60;80.16
52227;BME280;38190;59.928;10.446;2022-08-18T12:42:38;100630.28;;;19.37;80.17
52227;BME280;38190;59.928;10.446;2022-08-18T12:45:39;100625.72;;;19.41;80.57
52227;BME280;38190;59.928;10.446;2022-08-18T12:48:40;100627.31;;;20.44;78.01
52227;BME280;38190;59.928;10.446;2022-08-18T12:51:41;100620.69;;;19.58;76.49
52227;BME280;38190;59.928;10.446;2022-08-18T12:54:42;100620.91;;;20.26;79.05
52227;BME280;38190;59.928;10.446;2022-08-18T12:57:43;100616.06;;;19.63;77.98
52227;BME280;38190;59.928;10.446;2022-08-18T13:00:43;100612.34;;;19.92;78.64
52227;BME280;38190;59.928;10.446;2022-08-18T13:03:45;100609.84;;;20.13;79.11
52227;BME280;38190;59.928;10.446;2022-08-18T13:06:51;100611.41;;;19.45;84.30
52227;BME280;38190;59.928;10.446;2022-08-18T13:09:53;100613.34;;;19.65;86.27
52227;BME280;38190;59.928;10.446;2022-08-18T13:12:53;100605.53;;;19.35;87.14
52227;BME280;38190;59.928;10.446;2022-08-18T13:15:54;100606.22;;;19.15;81.26
52227;BME280;38190;59.928;10.446;2022-08-18T13:18:55;100605.59;;;19.84;78.03
52227;BME280;38190;59.928;10.446;2022-08-18T13:21:56;100600.56;;;19.49;78.69
52227;BME280;38190;59.928;10.446;2022-08-18T13:24:57;100596.50;;;19.89;76.92
52227;BME280;38190;59.928;10.446;2022-08-18T13:27:57;100588.31;;;20.41;77.06
52227;BME280;38190;59.928;10.446;2022-08-18T13:30:58;100587.75;;;19.35;76.99
52227;BME280;38190;59.928;10.446;2022-08-18T13:33:58;100581.84;;;19.27;78.59
52227;BME280;38190;59.928;10.446;2022-08-18T13:36:59;100574.25;;;19.16;76.56
52227;BME280;38190;59.928;10.446;2022-08-18T13:39:59;100568.09;;;19.40;78.91
52227;BME280;38190;59.928;10.446;2022-08-18T13:43:00;100579.31;;;19.73;79.95
52227;BME280;38190;59.928;10.446;2022-08-18T13:46:02;100571.34;;;19.73;79.27
52227;BME280;38190;59.928;10.446;2022-08-18T13:49:02;100568.91;;;19.16;82.84
52227;BME280;38190;59.928;10.446;2022-08-18T13:52:04;100568.84;;;18.91;82.72
52227;BME280;38190;59.928;10.446;2022-08-18T13:55:08;100578.47;;;18.95;80.34
52227;BME280;38190;59.928;10.446;2022-08-18T13:58:10;100574.84;;;18.70;80.32
52227;BME280;38190;59.928;10.446;2022-08-18T14:01:11;100578.94;;;18.80;80.57
52227;BME280;38190;59.928;10.446;2022-08-18T14:04:12;100581.53;;;18.26;82.17
52227;BME280;38190;59.928;10.446;2022-08-18T14:07:13;100574.06;;;18.10;88.08
52227;BME280;38190;59.928;10.446;2022-08-18T14:10:14;100568.50;;;18.19;89.43
52227;BME280;38190;59.928;10.446;2022-08-18T14:13:16;100553.00;;;18.03;93.11
52227;BME280;38190;59.928;10.446;2022-08-18T14:16:19;100554.84;;;18.01;92.10
52227;BME280;38190;59.928;10.446;2022-08-18T14:19:20;100562.00;;;17.99;92.78
52227;BME280;38190;59.928;10.446;2022-08-18T14:22:39;100557.97;;;17.84;94.98
52227;BME280;38190;59.928;10.446;2022-08-18T14:25:58;100553.47;;;17.55;97.74
52227;BME280;38190;59.928;10.446;2022-08-18T14:29:17;100549.66;;;17.32;98.32
52227;BME280;38190;59.928;10.446;2022-08-18T14:32:20;100534.72;;;17.30;98.94
52227;BME280;38190;59.928;10.446;2022-08-18T14:35:22;100541.31;;;17.15;100.00
52227;BME280;38190;59.928;10.446;2022-08-18T14:38:22;100554.34;;;16.90;100.00
52227;BME280;38190;59.928;10.446;2022-08-18T14:41:23;100560.75;;;16.78;100.00
52227;BME280;38190;59.928;10.446;2022-08-18T14:44:24;100565.25;;;16.76;100.00
52227;BME280;38190;59.928;10.446;2022-08-18T14:47:25;100556.50;;;16.72;100.00
52227;BME280;38190;59.928;10.446;2022-08-18T14:50:28;100560.06;;;16.70;100.00
52227;BME280;38190;59.928;10.446;2022-08-18T14:53:30;100563.84;;;16.61;100.00
52227;BME280;38190;59.928;10.446;2022-08-18T14:56:32;100571.75;;;16.63;100.00
52227;BME280;38190;59.928;10.446;2022-08-18T14:59:33;100552.13;;;16.70;100.00
52227;BME280;38190;59.928;10.446;2022-08-18T15:02:33;100555.78;;;16.66;100.00
52227;BME280;38190;59.928;10.446;2022-08-18T15:05:34;100541.38;;;16.76;100.00
52227;BME280;38190;59.928;10.446;2022-08-18T15:08:36;100530.88;;;16.71;100.00
52227;BME280;38190;59.928;10.446;2022-08-18T15:11:37;100529.25;;;16.67;100.00
52227;BME280;38190;59.928;10.446;2022-08-18T15:14:38;100528.22;;;16.71;100.00
52227;BME280;38190;59.928;10.446;2022-08-18T15:17:39;100520.25;;;16.73;100.00
52227;BME280;38190;59.928;10.446;2022-08-18T15:20:39;100516.13;;;16.61;100.00
52227;BME280;38190;59.928;10.446;2022-08-18T15:23:59;100519.56;;;16.65;100.00
52227;BME280;38190;59.928;10.446;2022-08-18T15:27:18;100505.19;;;16.75;100.00
52227;BME280;38190;59.928;10.446;2022-08-18T15:30:19;100500.66;;;16.80;100.00
52227;BME280;38190;59.928;10.446;2022-08-18T15:33:20;100504.28;;;16.76;100.00
52227;BME280;38190;59.928;10.446;2022-08-18T15:36:22;100501.69;;;16.73;100.00
52227;BME280;38190;59.928;10.446;2022-08-18T15:39:23;100505.09;;;16.78;100.00
52227;BME280;38190;59.928;10.446;2022-08-18T15:42:24;100501.88;;;16.67;100.00
52227;BME280;38190;59.928;10.446;2022-08-18T15:45:28;100495.59;;;16.69;100.00
52227;BME280;38190;59.928;10.446;2022-08-18T15:48:28;100495.75;;;16.63;100.00
52227;BME280;38190;59.928;10.446;2022-08-18T15:51:29;100486.81;;;16.67;100.00
52227;BME280;38190;59.928;10.446;2022-08-18T15:54:29;100481.63;;;16.63;100.00
52227;BME280;38190;59.928;10.446;2022-08-18T15:57:30;100483.38;;;16.64;100.00
52227;BME280;38190;59.928;10.446;2022-08-18T16:00:31;100482.38;;;16.68;100.00
52227;BME280;38190;59.928;10.446;2022-08-18T16:03:32;100485.03;;;16.68;100.00
52227;BME280;38190;59.928;10.446;2022-08-18T16:06:33;100476.38;;;16.61;100.00
52227;BME280;38190;59.928;10.446;2022-08-18T16:09:34;100479.88;;;16.61;100.00
52227;BME280;38190;59.928;10.446;2022-08-18T16:12:35;100474.69;;;16.58;100.00
52227;BME280;38190;59.928;10.446;2022-08-18T16:15:39;100464.19;;;16.54;100.00
52227;BME280;38190;59.928;10.446;2022-08-18T16:18:40;100468.47;;;16.59;100.00
52227;BME280;38190;59.928;10.446;2022-08-18T16:21:40;100468.53;;;16.56;100.00
52227;BME280;38190;59.928;10.446;2022-08-18T16:24:41;100474.94;;;16.48;100.00
52227;BME280;38190;59.928;10.446;2022-08-18T16:27:43;100466.28;;;16.41;100.00
52227;BME280;38190;59.928;10.446;2022-08-18T16:30:45;100473.50;;;16.34;100.00
52227;BME280;38190;59.928;10.446;2022-08-18T16:33:45;100464.78;;;16.31;100.00
52227;BME280;38190;59.928;10.446;2022-08-18T16:36:46;100470.06;;;16.31;100.00
52227;BME280;38190;59.928;10.446;2022-08-18T16:39:46;100467.63;;;16.21;100.00
52227;BME280;38190;59.928;10.446;2022-08-18T16:42:52;100465.66;;;16.30;100.00
52227;BME280;38190;59.928;10.446;2022-08-18T16:45:53;100458.63;;;16.30;100.00
52227;BME280;38190;59.928;10.446;2022-08-18T16:48:56;100464.94;;;16.23;100.00
52227;BME280;38190;59.928;10.446;2022-08-18T16:52:00;100452.00;;;16.11;100.00
52227;BME280;38190;59.928;10.446;2022-08-18T16:55:02;100446.81;;;16.06;100.00
52227;BME280;38190;59.928;10.446;2022-08-18T16:58:04;100450.38;;;16.03;100.00
52227;BME280;38190;59.928;10.446;2022-08-18T17:01:23;100438.13;;;16.01;100.00
52227;BME280;38190;59.928;10.446;2022-08-18T17:04:42;100445.19;;;16.00;100.00
52227;BME280;38190;59.928;10.446;2022-08-18T17:07:43;100460.16;;;16.01;100.00
52227;BME280;38190;59.928;10.446;2022-08-18T17:10:43;100439.41;;;16.20;100.00
52227;BME280;38190;59.928;10.446;2022-08-18T17:13:45;100435.47;;;16.01;100.00
52227;BME280;38190;59.928;10.446;2022-08-18T17:16:47;100440.84;;;15.96;100.00
52227;BME280;38190;59.928;10.446;2022-08-18T17:19:48;100436.44;;;15.97;100.00
52227;BME280;38190;59.928;10.446;2022-08-18T17:22:49;100439.97;;;15.97;100.00
52227;BME280;38190;59.928;10.446;2022-08-18T17:25:49;100431.22;;;15.94;100.00
52227;BME280;38190;59.928;10.446;2022-08-18T17:28:56;100420.84;;;15.84;100.00
52227;BME280;38190;59.928;10.446;2022-08-18T17:32:07;100415.50;;;15.86;100.00
52227;BME280;38190;59.928;10.446;2022-08-18T17:38:26;100424.56;;;15.74;100.00
52227;BME280;38190;59.928;10.446;2022-08-18T17:41:32;100422.03;;;15.69;100.00
52227;BME280;38190;59.928;10.446;2022-08-18T17:44:55;100419.53;;;15.62;100.00
52227;BME280;38190;59.928;10.446;2022-08-18T17:48:10;100414.25;;;15.62;100.00
52227;BME280;38190;59.928;10.446;2022-08-18T17:51:19;100417.66;;;15.67;100.00
52227;BME280;38190;59.928;10.446;2022-08-18T17:54:40;100414.13;;;15.68;100.00
52227;BME280;38190;59.928;10.446;2022-08-18T17:57:50;100414.13;;;15.68;100.00
52227;BME280;38190;59.928;10.446;2022-08-18T18:00:52;100416.72;;;15.69;100.00